createdAt,value
2018-08-20T00:00:10.309Z,99.90
2018-08-20T00:02:39.247Z,99.90
2018-08-20T00:05:07.807Z,99.90
2018-08-20T00:07:36.279Z,99.90
2018-08-20T00:10:05.456Z,99.90
2018-08-20T00:12:33.728Z,99.90
2018-08-20T00:15:02.032Z,99.90
2018-08-20T00:17:30.340Z,99.90
2018-08-20T00:19:58.665Z,99.90
2018-08-20T00:22:27.368Z,99.90
2018-08-20T00:25:07.903Z,99.90
2018-08-20T00:27:36.197Z,99.90
2018-08-20T00:30:05.860Z,99.90
2018-08-20T00:32:34.692Z,99.90
2018-08-20T00:35:03.072Z,99.90
2018-08-20T00:37:31.656Z,99.90
2018-08-20T00:40:00.045Z,99.90
2018-08-20T00:42:28.309Z,99.90
2018-08-20T00:44:56.987Z,99.90
2018-08-20T00:47:25.721Z,99.90
2018-08-20T00:49:54.267Z,99.90
2018-08-20T00:52:22.871Z,99.90
2018-08-20T00:54:51.482Z,99.90
2018-08-20T00:57:19.846Z,99.90
2018-08-20T00:59:48.363Z,99.90
2018-08-20T01:02:21.020Z,99.90
2018-08-20T01:04:49.288Z,99.90
2018-08-20T01:07:18.210Z,99.90
2018-08-20T01:09:46.867Z,99.90
2018-08-20T01:12:15.569Z,99.90
2018-08-20T01:14:43.869Z,99.90
2018-08-20T01:17:12.155Z,99.90
2018-08-20T01:19:40.702Z,99.90
2018-08-20T01:22:09.088Z,99.90
2018-08-20T01:24:37.800Z,99.90
2018-08-20T01:27:06.570Z,99.90
2018-08-20T01:29:35.193Z,99.90
2018-08-20T01:32:03.813Z,99.90
2018-08-20T01:34:32.363Z,99.90
2018-08-20T01:37:00.736Z,99.90
2018-08-20T01:39:29.130Z,99.90
2018-08-20T01:41:57.418Z,99.90
2018-08-20T01:44:26.065Z,99.90
2018-08-20T01:46:54.848Z,99.90
2018-08-20T01:49:23.382Z,99.90
2018-08-20T01:51:51.663Z,99.90
2018-08-20T01:54:20.439Z,99.90
2018-08-20T01:56:49.327Z,99.90
2018-08-20T01:59:17.588Z,99.90
2018-08-20T02:01:45.906Z,99.90
2018-08-20T02:04:14.632Z,99.90
2018-08-20T02:06:42.898Z,99.90
2018-08-20T02:09:11.194Z,99.90
2018-08-20T02:11:39.955Z,99.90
2018-08-20T02:14:08.495Z,99.90
2018-08-20T02:16:38.332Z,99.90
2018-08-20T02:19:07.610Z,99.90
2018-08-20T02:21:35.896Z,99.90
2018-08-20T02:24:04.219Z,99.90
2018-08-20T02:26:32.491Z,99.90
2018-08-20T02:29:01.575Z,99.90
2018-08-20T02:31:30.191Z,99.90
2018-08-20T02:33:59.300Z,99.90
2018-08-20T02:36:27.836Z,99.90
2018-08-20T02:38:56.440Z,99.90
2018-08-20T02:41:24.820Z,99.90
2018-08-20T02:43:53.125Z,99.90
2018-08-20T02:46:32.975Z,99.90
2018-08-20T02:49:01.260Z,99.90
2018-08-20T02:51:29.536Z,99.90
2018-08-20T02:53:58.050Z,99.90
2018-08-20T02:56:26.680Z,99.90
2018-08-20T02:58:55.216Z,99.90
2018-08-20T03:01:23.932Z,99.90
2018-08-20T03:03:52.219Z,99.90
2018-08-20T03:06:21.035Z,99.90
2018-08-20T03:08:49.835Z,99.90
2018-08-20T03:11:18.119Z,99.90
2018-08-20T03:13:46.984Z,99.90
2018-08-20T03:16:15.370Z,99.90
2018-08-20T03:18:44.067Z,99.90
2018-08-20T03:21:12.793Z,99.90
2018-08-20T03:23:41.091Z,99.90
2018-08-20T03:26:09.696Z,99.90
2018-08-20T03:28:38.256Z,99.90
2018-08-20T03:31:06.720Z,99.90
2018-08-20T03:33:35.092Z,99.90
2018-08-20T03:36:03.617Z,99.90
2018-08-20T03:38:31.939Z,99.90
2018-08-20T03:41:00.659Z,99.90
2018-08-20T03:43:28.919Z,99.90
2018-08-20T03:45:57.233Z,99.90
2018-08-20T03:48:25.800Z,99.90
2018-08-20T03:50:54.064Z,99.90
2018-08-20T03:53:22.690Z,99.90
2018-08-20T03:55:50.970Z,99.90
2018-08-20T03:58:19.626Z,99.90
2018-08-20T04:00:47.965Z,99.90
2018-08-20T04:03:16.371Z,99.90
2018-08-20T04:05:45.244Z,99.90
2018-08-20T04:08:13.612Z,99.90
2018-08-20T04:10:41.904Z,99.90
2018-08-20T04:13:10.816Z,99.90
2018-08-20T04:15:39.116Z,99.90
2018-08-20T04:18:07.751Z,99.90
2018-08-20T04:20:36.291Z,99.90
2018-08-20T04:23:04.901Z,99.90
2018-08-20T04:25:33.171Z,99.90
2018-08-20T04:28:01.584Z,99.90
2018-08-20T04:30:30.088Z,99.90
2018-08-20T04:32:58.720Z,99.90
2018-08-20T04:35:27.112Z,99.90
2018-08-20T04:37:55.616Z,99.90
2018-08-20T04:40:24.208Z,99.90
2018-08-20T04:42:52.500Z,99.90
2018-08-20T04:45:21.120Z,99.90
2018-08-20T04:47:50.362Z,99.90
2018-08-20T04:50:19.177Z,99.90
2018-08-20T04:52:47.358Z,99.90
2018-08-20T04:55:15.856Z,99.90
2018-08-20T04:57:44.137Z,99.90
2018-08-20T05:00:12.723Z,99.90
2018-08-20T05:02:41.009Z,99.90
2018-08-20T05:05:09.688Z,99.90
2018-08-20T05:07:39.488Z,99.90
2018-08-20T05:10:08.077Z,99.90
2018-08-20T05:12:37.105Z,99.90
2018-08-20T05:15:06.059Z,99.90
2018-08-20T05:17:34.615Z,99.90
2018-08-20T05:20:02.916Z,99.90
2018-08-20T05:22:31.497Z,99.90
2018-08-20T05:25:00.132Z,99.90
2018-08-20T05:27:28.688Z,99.90
2018-08-20T05:29:57.163Z,99.90
2018-08-20T05:32:25.766Z,99.90
2018-08-20T05:34:54.304Z,99.90
2018-08-20T05:37:22.631Z,99.90
2018-08-20T05:39:51.270Z,99.90
2018-08-20T05:42:20.416Z,99.90
2018-08-20T05:44:49.327Z,99.90
2018-08-20T05:47:18.047Z,99.90
2018-08-20T05:49:46.469Z,99.90
2018-08-20T05:52:15.831Z,99.90
2018-08-20T05:54:44.551Z,99.90
2018-08-20T05:57:13.185Z,99.90
2018-08-20T05:59:41.532Z,99.90
2018-08-20T06:02:10.454Z,99.90
2018-08-20T06:04:38.859Z,99.90
2018-08-20T06:07:07.157Z,99.90
2018-08-20T06:09:35.709Z,99.90
2018-08-20T06:12:04.330Z,99.90
2018-08-20T06:14:32.632Z,99.90
2018-08-20T06:17:00.988Z,99.90
2018-08-20T06:19:29.293Z,99.90
2018-08-20T06:21:58.193Z,99.90
2018-08-20T06:24:26.488Z,99.90
2018-08-20T06:26:55.219Z,99.90
2018-08-20T06:29:23.728Z,99.90
2018-08-20T06:31:52.152Z,99.90
2018-08-20T06:34:20.732Z,99.90
2018-08-20T06:36:49.363Z,99.90
2018-08-20T06:39:18.155Z,99.90
2018-08-20T06:41:46.547Z,99.90
2018-08-20T06:44:15.134Z,99.90
2018-08-20T06:46:43.608Z,99.90
2018-08-20T06:49:12.606Z,99.90
2018-08-20T06:51:41.173Z,99.90
2018-08-20T06:54:09.464Z,99.90
2018-08-20T06:56:38.397Z,99.90
2018-08-20T06:59:06.715Z,99.90
2018-08-20T07:01:34.976Z,99.90
2018-08-20T07:04:03.251Z,99.90
2018-08-20T07:06:31.806Z,99.80
2018-08-20T07:09:00.799Z,98.80
2018-08-20T07:11:29.539Z,97.40
2018-08-20T07:13:57.827Z,96.80
2018-08-20T07:16:26.763Z,96.30
2018-08-20T07:18:55.291Z,96.70
2018-08-20T07:21:23.969Z,96.10
2018-08-20T07:23:52.321Z,96.30
2018-08-20T07:26:20.930Z,93.60
2018-08-20T07:28:49.308Z,93.80
2018-08-20T07:31:18.402Z,92.90
2018-08-20T07:33:46.734Z,93.00
2018-08-20T07:36:15.047Z,92.10
2018-08-20T07:38:43.639Z,91.50
2018-08-20T07:41:12.221Z,91.00
2018-08-20T07:43:40.859Z,90.90
2018-08-20T07:46:09.132Z,89.10
2018-08-20T07:48:37.402Z,90.00
2018-08-20T07:51:05.960Z,87.10
2018-08-20T07:53:34.569Z,85.10
2018-08-20T07:56:02.867Z,81.60
2018-08-20T07:58:31.377Z,82.20
2018-08-20T08:00:59.947Z,82.90
2018-08-20T08:03:30.568Z,82.60
2018-08-20T08:06:00.642Z,83.60
2018-08-20T08:08:29.333Z,81.00
2018-08-20T08:10:57.607Z,76.20
2018-08-20T08:13:25.898Z,77.30
2018-08-20T08:15:54.366Z,80.90
2018-08-20T08:18:22.638Z,74.90
2018-08-20T08:20:51.560Z,76.70
2018-08-20T08:23:20.505Z,73.20
2018-08-20T08:25:49.191Z,74.30
2018-08-20T08:28:17.750Z,74.20
2018-08-20T08:30:46.011Z,74.80
2018-08-20T08:33:14.718Z,72.10
2018-08-20T08:35:43.203Z,71.00
2018-08-20T08:38:11.533Z,69.60
2018-08-20T08:40:40.340Z,69.70
2018-08-20T08:43:09.029Z,70.20
2018-08-20T08:45:37.492Z,73.70
2018-08-20T08:48:06.041Z,69.00
2018-08-20T08:50:34.683Z,69.70
2018-08-20T08:53:03.574Z,67.70
2018-08-20T08:55:31.904Z,63.80
2018-08-20T08:58:00.452Z,67.70
2018-08-20T09:00:29.092Z,66.90
2018-08-20T09:02:57.820Z,61.90
2018-08-20T09:05:26.130Z,67.70
2018-08-20T09:07:54.733Z,61.10
2018-08-20T09:10:23.304Z,64.00
2018-08-20T09:12:51.845Z,64.70
2018-08-20T09:15:20.640Z,61.00
2018-08-20T09:17:49.539Z,58.80
2018-08-20T09:20:18.457Z,61.70
2018-08-20T09:22:46.729Z,57.50
2018-08-20T09:25:15.507Z,58.60
2018-08-20T09:27:44.993Z,59.90
2018-08-20T09:30:20.228Z,61.00
2018-08-20T09:32:48.989Z,59.80
2018-08-20T09:35:17.591Z,59.40
2018-08-20T09:37:45.884Z,55.40
2018-08-20T09:40:14.592Z,58.20
2018-08-20T09:42:43.442Z,58.10
2018-08-20T09:45:11.958Z,53.70
2018-08-20T09:47:41.047Z,57.90
2018-08-20T09:50:12.339Z,57.80
2018-08-20T09:52:40.612Z,54.70
2018-08-20T09:55:09.341Z,54.10
2018-08-20T09:57:38.266Z,54.10
2018-08-20T10:00:11.823Z,53.80
2018-08-20T10:02:40.455Z,54.90
2018-08-20T10:05:09.056Z,56.20
2018-08-20T10:07:37.657Z,53.10
2018-08-20T10:10:06.333Z,53.50
2018-08-20T10:12:35.022Z,54.30
2018-08-20T10:15:03.483Z,53.80
2018-08-20T10:17:31.756Z,48.50
2018-08-20T10:20:00.016Z,51.70
2018-08-20T10:22:28.644Z,53.50
2018-08-20T10:24:57.531Z,52.30
2018-08-20T10:27:26.155Z,49.80
2018-08-20T10:29:54.451Z,51.60
2018-08-20T10:32:23.385Z,51.50
2018-08-20T10:34:51.806Z,48.60
2018-08-20T10:37:20.118Z,46.30
2018-08-20T10:39:48.740Z,52.00
2018-08-20T10:42:17.036Z,48.50
2018-08-20T10:44:50.698Z,48.90
2018-08-20T10:47:19.241Z,50.60
2018-08-20T10:49:47.848Z,52.00
2018-08-20T10:52:16.169Z,45.70
2018-08-20T10:54:44.969Z,49.40
2018-08-20T10:57:14.085Z,47.90
2018-08-20T10:59:42.667Z,45.40
2018-08-20T11:02:11.335Z,48.40
2018-08-20T11:04:39.971Z,47.40
2018-08-20T11:07:08.273Z,44.20
2018-08-20T11:09:37.277Z,47.20
2018-08-20T11:12:06.637Z,46.10
2018-08-20T11:14:35.326Z,47.60
2018-08-20T11:17:04.407Z,45.10
2018-08-20T11:19:32.688Z,45.40
2018-08-20T11:22:01.666Z,47.10
2018-08-20T11:24:30.548Z,44.50
2018-08-20T11:26:59.307Z,45.40
2018-08-20T11:29:27.981Z,46.00
2018-08-20T11:31:56.266Z,43.40
2018-08-20T11:34:24.787Z,45.10
2018-08-20T11:36:53.468Z,44.20
2018-08-20T11:39:21.772Z,45.10
2018-08-20T11:41:52.959Z,43.70
2018-08-20T11:44:24.386Z,45.30
2018-08-20T11:46:52.947Z,44.10
2018-08-20T11:49:21.257Z,44.30
2018-08-20T11:51:50.148Z,47.30
2018-08-20T11:54:18.985Z,42.40
2018-08-20T11:56:47.300Z,43.60
2018-08-20T11:59:16.191Z,44.30
2018-08-20T12:01:44.841Z,44.00
2018-08-20T12:04:13.773Z,43.20
2018-08-20T12:06:42.374Z,43.00
2018-08-20T12:09:10.872Z,46.10
2018-08-20T12:11:39.154Z,46.50
2018-08-20T12:14:08.242Z,42.20
2018-08-20T12:16:36.631Z,42.00
2018-08-20T12:19:05.224Z,45.10
2018-08-20T12:21:33.767Z,42.40
2018-08-20T12:24:02.339Z,41.80
2018-08-20T12:26:30.945Z,43.40
2018-08-20T12:28:59.379Z,42.40
2018-08-20T12:31:28.064Z,42.60
2018-08-20T12:33:56.757Z,42.80
2018-08-20T12:36:25.285Z,41.60
2018-08-20T12:38:53.620Z,42.60
2018-08-20T12:41:22.377Z,41.50
2018-08-20T12:43:51.004Z,43.00
2018-08-20T12:46:20.340Z,44.20
2018-08-20T12:48:50.814Z,44.10
2018-08-20T12:51:19.981Z,43.00
2018-08-20T12:53:48.504Z,45.40
2018-08-20T12:56:16.952Z,44.80
2018-08-20T12:58:51.815Z,42.10
2018-08-20T13:01:21.357Z,41.50
2018-08-20T13:03:50.365Z,44.00
2018-08-20T13:06:19.404Z,41.70
2018-08-20T13:08:48.346Z,41.90
2018-08-20T13:11:17.262Z,43.70
2018-08-20T13:13:46.300Z,44.20
2018-08-20T13:16:15.210Z,43.40
2018-08-20T13:18:43.995Z,45.30
2018-08-20T13:21:12.912Z,46.60
2018-08-20T13:23:41.311Z,46.80
2018-08-20T13:26:10.329Z,47.50
2018-08-20T13:28:38.904Z,43.50
2018-08-20T13:31:07.793Z,43.30
2018-08-20T13:33:36.502Z,45.70
2018-08-20T13:36:05.021Z,43.90
2018-08-20T13:38:33.768Z,44.00
2018-08-20T13:41:02.528Z,46.20
2018-08-20T13:43:31.295Z,48.30
2018-08-20T13:45:59.831Z,48.90
2018-08-20T13:48:28.708Z,49.90
2018-08-20T13:50:57.603Z,45.70
2018-08-20T13:53:26.204Z,48.00
2018-08-20T13:55:54.958Z,47.30
2018-08-20T13:58:24.115Z,44.80
2018-08-20T14:00:52.693Z,43.70
2018-08-20T14:03:22.106Z,43.80
2018-08-20T14:05:50.992Z,42.50
2018-08-20T14:08:19.571Z,41.80
2018-08-20T14:10:48.972Z,42.90
2018-08-20T14:13:17.605Z,42.00
2018-08-20T14:15:46.286Z,42.10
2018-08-20T14:18:15.083Z,42.90
2018-08-20T14:21:17.272Z,43.50
2018-08-20T14:23:49.140Z,42.40
2018-08-20T14:26:17.998Z,44.50
2018-08-20T14:28:46.479Z,43.10
2018-08-20T14:31:15.512Z,42.60
2018-08-20T14:33:43.908Z,42.60
2018-08-20T14:36:12.618Z,42.00
2018-08-20T14:38:41.229Z,42.80
2018-08-20T14:41:10.020Z,43.10
2018-08-20T14:43:38.764Z,43.10
2018-08-20T14:46:13.150Z,45.60
2018-08-20T14:48:41.669Z,43.50
2018-08-20T14:51:10.339Z,41.60
2018-08-20T14:53:39.825Z,42.00
2018-08-20T14:56:08.981Z,41.70
2018-08-20T14:58:37.639Z,43.80
2018-08-20T15:01:06.976Z,42.80
2018-08-20T15:03:35.981Z,43.70
2018-08-20T15:06:04.805Z,43.70
2018-08-20T15:08:36.331Z,43.20
2018-08-20T15:11:05.144Z,44.20
2018-08-20T15:13:33.604Z,42.30
2018-08-20T15:16:02.856Z,44.20
2018-08-20T15:18:31.757Z,44.90
2018-08-20T15:21:00.523Z,45.90
2018-08-20T15:23:29.102Z,47.80
2018-08-20T15:25:57.705Z,46.90
2018-08-20T15:28:26.409Z,46.30
2018-08-20T15:30:54.885Z,46.80
2018-08-20T15:33:23.409Z,45.60
2018-08-20T15:35:52.304Z,45.90
2018-08-20T15:38:21.205Z,46.10
2018-08-20T15:40:49.580Z,44.60
2018-08-20T15:43:17.906Z,47.50
2018-08-20T15:45:46.822Z,49.20
2018-08-20T15:48:15.439Z,50.40
2018-08-20T15:50:43.979Z,50.90
2018-08-20T15:53:12.863Z,51.40
2018-08-20T15:55:41.167Z,52.10
2018-08-20T15:58:09.976Z,52.80
2018-08-20T16:00:38.264Z,54.20
2018-08-20T16:03:06.902Z,54.00
2018-08-20T16:05:35.243Z,55.10
2018-08-20T16:08:04.157Z,54.00
2018-08-20T16:10:32.784Z,53.40
2018-08-20T16:13:01.093Z,54.20
2018-08-20T16:15:29.836Z,54.10
2018-08-20T16:17:58.684Z,56.30
2018-08-20T16:20:27.144Z,53.50
2018-08-20T16:22:55.471Z,54.90
2018-08-20T16:25:24.674Z,58.40
2018-08-20T16:27:52.959Z,57.50
2018-08-20T16:30:21.683Z,57.70
2018-08-20T16:32:50.363Z,59.10
2018-08-20T16:35:18.907Z,57.10
2018-08-20T16:37:47.543Z,57.20
2018-08-20T16:40:16.051Z,58.40
2018-08-20T16:42:44.428Z,58.30
2018-08-20T16:45:12.992Z,58.50
2018-08-20T16:47:41.396Z,58.50
2018-08-20T16:50:11.603Z,59.80
2018-08-20T16:52:40.399Z,59.80
2018-08-20T16:55:09.586Z,60.80
2018-08-20T16:57:38.504Z,60.50
2018-08-20T17:00:09.096Z,59.80
2018-08-20T17:02:39.643Z,59.80
2018-08-20T17:05:09.020Z,59.80
2018-08-20T17:07:37.999Z,59.60
2018-08-20T17:10:07.748Z,65.00
2018-08-20T17:12:36.723Z,62.40
2018-08-20T17:15:08.660Z,62.60
2018-08-20T17:17:37.112Z,62.00
2018-08-20T17:20:05.624Z,63.20
2018-08-20T17:22:34.771Z,63.40
2018-08-20T17:25:03.069Z,64.60
2018-08-20T17:27:31.679Z,65.00
2018-08-20T17:30:00.055Z,64.80
2018-08-20T17:32:28.602Z,65.10
2018-08-20T17:34:57.376Z,65.20
2018-08-20T17:37:25.662Z,64.80
2018-08-20T17:40:04.067Z,66.00
2018-08-20T17:42:33.665Z,66.60
2018-08-20T17:45:02.501Z,66.10
2018-08-20T17:47:31.724Z,67.70
2018-08-20T17:50:00.853Z,67.50
2018-08-20T17:52:31.328Z,68.40
2018-08-20T17:55:01.646Z,67.90
2018-08-20T17:57:30.327Z,68.90
2018-08-20T18:00:41.458Z,70.30
2018-08-20T18:03:20.269Z,70.40
2018-08-20T18:05:53.750Z,71.30
2018-08-20T18:08:23.200Z,72.70
2018-08-20T18:10:52.351Z,73.30
2018-08-20T18:13:33.991Z,75.60
2018-08-20T18:16:04.263Z,74.30
2018-08-20T18:18:33.476Z,75.50
2018-08-20T18:21:02.064Z,76.30
2018-08-20T18:23:31.958Z,76.10
2018-08-20T18:26:00.579Z,77.10
2018-08-20T18:28:32.740Z,76.70
2018-08-20T18:31:10.581Z,77.10
2018-08-20T18:33:39.992Z,78.40
2018-08-20T18:36:14.852Z,78.70
2018-08-20T18:38:49.292Z,77.00
2018-08-20T18:41:18.759Z,78.70
2018-08-20T18:43:47.034Z,78.30
2018-08-20T18:46:15.702Z,79.60
2018-08-20T18:48:44.051Z,78.40
2018-08-20T18:51:15.793Z,80.30
2018-08-20T18:53:44.299Z,82.40
2018-08-20T18:56:15.133Z,82.70
2018-08-20T18:58:44.275Z,81.70
2018-08-20T19:01:12.975Z,81.30
2018-08-20T19:03:48.766Z,83.70
2018-08-20T19:06:17.919Z,81.60
2018-08-20T19:08:47.113Z,80.70
2018-08-20T19:11:15.905Z,82.70
2018-08-20T19:13:44.523Z,79.80
2018-08-20T19:16:30.288Z,81.20
2018-08-20T19:18:58.569Z,81.60
2018-08-20T19:21:29.600Z,82.50
2018-08-20T19:23:59.687Z,84.20
2018-08-20T19:26:29.601Z,84.60
2018-08-20T19:28:58.205Z,85.70
2018-08-20T19:31:26.660Z,85.70
2018-08-20T19:33:55.283Z,85.20
2018-08-20T19:36:23.748Z,83.10
2018-08-20T19:38:52.744Z,82.40
2018-08-20T19:41:21.388Z,83.90
2018-08-20T19:43:51.489Z,84.90
2018-08-20T19:46:29.335Z,84.30
2018-08-20T19:49:03.785Z,86.70
2018-08-20T19:51:33.555Z,86.60
2018-08-20T19:54:02.191Z,85.30
2018-08-20T19:56:30.890Z,86.90
2018-08-20T19:58:59.184Z,86.50
2018-08-20T20:01:27.792Z,87.90
2018-08-20T20:03:56.703Z,87.40
2018-08-20T20:06:25.004Z,86.70
2018-08-20T20:08:53.755Z,87.40
2018-08-20T20:11:29.504Z,88.10
2018-08-20T20:14:00.755Z,87.90
2018-08-20T20:16:37.522Z,88.50
2018-08-20T20:19:05.815Z,90.00
2018-08-20T20:21:36.159Z,88.40
2018-08-20T20:24:04.752Z,87.00
2018-08-20T20:26:33.399Z,90.10
2018-08-20T20:29:01.974Z,89.70
2018-08-20T20:31:30.906Z,88.00
2018-08-20T20:33:59.680Z,90.50
2018-08-20T20:36:29.457Z,90.20
2018-08-20T20:38:57.799Z,91.10
2018-08-20T20:41:26.412Z,91.10
2018-08-20T20:43:54.972Z,90.30
2018-08-20T20:46:23.471Z,90.80
2018-08-20T20:48:52.080Z,91.50
2018-08-20T20:51:20.584Z,90.60
2018-08-20T20:53:50.139Z,91.80
2018-08-20T20:56:18.534Z,91.30
2018-08-20T20:58:47.099Z,92.20
2018-08-20T21:01:15.556Z,91.60
2018-08-20T21:03:44.222Z,91.50
2018-08-20T21:06:12.744Z,92.40
2018-08-20T21:08:47.702Z,92.20
2018-08-20T21:11:16.703Z,92.10
2018-08-20T21:13:45.432Z,92.50
2018-08-20T21:16:15.108Z,92.50
2018-08-20T21:18:45.675Z,92.20
2018-08-20T21:21:15.496Z,92.70
2018-08-20T21:23:44.515Z,92.50
2018-08-20T21:26:13.140Z,92.70
2018-08-20T21:28:45.317Z,92.20
2018-08-20T21:31:14.651Z,91.80
2018-08-20T21:33:43.728Z,92.20
2018-08-20T21:36:12.952Z,92.50
2018-08-20T21:38:41.836Z,92.40
2018-08-20T21:41:10.354Z,92.20
2018-08-20T21:43:44.165Z,92.60
2018-08-20T21:46:13.080Z,92.40
2018-08-20T21:48:43.226Z,92.50
2018-08-20T21:51:28.954Z,92.50
2018-08-20T21:54:00.361Z,93.20
2018-08-20T21:56:40.650Z,93.30
2018-08-20T21:59:11.781Z,93.50
2018-08-20T22:01:45.784Z,94.20
2018-08-20T22:04:22.509Z,94.00
2018-08-20T22:06:59.073Z,94.30
2018-08-20T22:09:29.765Z,95.40
2018-08-20T22:12:00.418Z,95.00
2018-08-20T22:14:29.846Z,95.50
2018-08-20T22:16:59.667Z,96.20
2018-08-20T22:19:28.374Z,95.70
2018-08-20T22:21:56.984Z,95.70
2018-08-20T22:24:25.612Z,95.80
2018-08-20T22:26:59.640Z,96.40
2018-08-20T22:29:34.991Z,96.80
2018-08-20T22:32:06.305Z,96.70
2018-08-20T22:34:34.835Z,96.80
2018-08-20T22:37:06.271Z,96.40
2018-08-20T22:39:35.200Z,96.50
2018-08-20T22:42:03.490Z,96.80
2018-08-20T22:44:31.809Z,96.70
2018-08-20T22:47:00.084Z,97.40
2018-08-20T22:49:28.670Z,97.60
2018-08-20T22:51:56.943Z,97.50
2018-08-20T22:54:25.199Z,97.50
2018-08-20T22:56:53.475Z,98.90
2018-08-20T22:59:22.119Z,98.70
2018-08-20T23:01:50.387Z,99.20
2018-08-20T23:04:19.396Z,99.90
2018-08-20T23:06:47.692Z,99.90
2018-08-20T23:09:27.252Z,99.90
2018-08-20T23:11:55.864Z,99.90
2018-08-20T23:14:24.799Z,99.90
2018-08-20T23:16:53.491Z,99.90
2018-08-20T23:19:22.472Z,99.90
2018-08-20T23:21:53.056Z,99.90
2018-08-20T23:24:22.023Z,99.90
2018-08-20T23:26:50.968Z,99.90
2018-08-20T23:29:19.856Z,99.90
2018-08-20T23:31:48.140Z,99.90
2018-08-20T23:34:16.689Z,99.90
2018-08-20T23:36:45.298Z,99.90
2018-08-20T23:39:16.000Z,99.90
2018-08-20T23:41:44.612Z,99.90
2018-08-20T23:44:15.467Z,99.90
2018-08-20T23:46:48.547Z,99.90
2018-08-20T23:49:17.152Z,99.90
2018-08-20T23:51:45.768Z,99.90
2018-08-20T23:54:14.552Z,99.90
2018-08-20T23:56:42.923Z,99.90
2018-08-20T23:59:11.485Z,99.90
